createdAt,value
2018-02-13T00:00:14.381Z,10.70
2018-02-13T00:02:41.901Z,10.80
2018-02-13T00:05:09.456Z,9.90
2018-02-13T00:07:36.972Z,9.70
2018-02-13T00:10:04.521Z,10.97
2018-02-13T00:12:32.072Z,10.03
2018-02-13T00:14:59.600Z,11.57
2018-02-13T00:17:27.919Z,10.03
2018-02-13T00:19:55.457Z,10.10
2018-02-13T00:22:22.985Z,9.87
2018-02-13T00:24:50.500Z,9.87
2018-02-13T00:27:18.041Z,9.40
2018-02-13T00:29:46.323Z,9.50
2018-02-13T00:32:14.192Z,9.80
2018-02-13T00:34:41.721Z,9.93
2018-02-13T00:37:09.284Z,10.00
2018-02-13T00:39:36.818Z,10.83
2018-02-13T00:42:04.365Z,10.80
2018-02-13T00:44:31.923Z,10.10
2018-02-13T00:46:59.440Z,9.67
2018-02-13T00:49:27.005Z,10.18
2018-02-13T00:51:54.612Z,10.50
2018-02-13T00:54:22.141Z,9.47
2018-02-13T00:56:50.429Z,10.60
2018-02-13T00:59:17.969Z,10.10
2018-02-13T01:01:46.264Z,9.40
2018-02-13T01:04:14.448Z,9.97
2018-02-13T01:06:41.968Z,10.77
2018-02-13T01:09:09.611Z,10.77
2018-02-13T01:11:37.125Z,10.23
2018-02-13T01:14:04.642Z,9.35
2018-02-13T01:16:32.185Z,10.20
2018-02-13T01:19:00.497Z,11.02
2018-02-13T01:21:28.040Z,10.97
2018-02-13T01:23:55.557Z,10.30
2018-02-13T01:26:23.149Z,10.13
2018-02-13T01:28:50.669Z,10.83
2018-02-13T01:31:18.268Z,11.37
2018-02-13T01:33:46.576Z,10.40
2018-02-13T01:36:14.152Z,11.40
2018-02-13T01:38:41.672Z,9.83
2018-02-13T01:41:09.211Z,10.88
2018-02-13T01:43:36.733Z,9.50
2018-02-13T01:46:04.269Z,10.77
2018-02-13T01:48:32.558Z,10.20
2018-02-13T01:51:00.104Z,10.33
2018-02-13T01:53:27.652Z,10.80
2018-02-13T01:55:55.168Z,10.30
2018-02-13T01:58:22.696Z,10.60
2018-02-13T02:00:50.973Z,10.30
2018-02-13T02:03:18.516Z,12.55
2018-02-13T02:05:46.031Z,11.20
2018-02-13T02:08:13.788Z,12.20
2018-02-13T02:10:41.312Z,11.70
2018-02-13T02:13:08.849Z,10.95
2018-02-13T02:15:36.412Z,10.20
2018-02-13T02:18:03.978Z,11.48
2018-02-13T02:20:32.292Z,11.03
2018-02-13T02:22:59.828Z,11.67
2018-02-13T02:25:27.339Z,12.40
2018-02-13T02:27:54.979Z,11.60
2018-02-13T02:30:23.271Z,11.27
2018-02-13T02:32:50.808Z,11.47
2018-02-13T02:35:18.363Z,11.75
2018-02-13T02:37:45.879Z,11.30
2018-02-13T02:40:15.169Z,11.38
2018-02-13T02:42:54.969Z,10.90
2018-02-13T02:45:22.511Z,11.50
2018-02-13T02:47:50.032Z,12.13
2018-02-13T02:50:17.571Z,12.40
2018-02-13T02:52:45.095Z,12.43
2018-02-13T02:55:12.631Z,11.95
2018-02-13T02:57:40.143Z,11.80
2018-02-13T03:00:08.450Z,12.37
2018-02-13T03:02:35.983Z,12.70
2018-02-13T03:05:03.527Z,11.90
2018-02-13T03:07:31.043Z,12.17
2018-02-13T03:09:59.356Z,12.67
2018-02-13T03:12:26.891Z,10.90
2018-02-13T03:14:54.467Z,11.80
2018-02-13T03:17:22.026Z,12.27
2018-02-13T03:19:50.307Z,12.43
2018-02-13T03:22:18.608Z,11.63
2018-02-13T03:24:46.142Z,12.70
2018-02-13T03:27:13.679Z,12.60
2018-02-13T03:29:41.200Z,13.40
2018-02-13T03:32:09.521Z,10.37
2018-02-13T03:34:37.250Z,11.47
2018-02-13T03:37:04.790Z,11.43
2018-02-13T03:39:32.324Z,13.10
2018-02-13T03:41:59.840Z,12.77
2018-02-13T03:44:28.164Z,13.13
2018-02-13T03:46:55.724Z,13.20
2018-02-13T03:49:24.768Z,13.70
2018-02-13T03:51:52.293Z,12.77
2018-02-13T03:54:19.856Z,13.10
2018-02-13T03:56:47.379Z,12.30
2018-02-13T03:59:15.852Z,13.20
2018-02-13T04:01:43.378Z,13.33
2018-02-13T04:04:10.929Z,14.93
2018-02-13T04:06:38.466Z,14.67
2018-02-13T04:09:06.167Z,13.13
2018-02-13T04:11:33.855Z,14.03
2018-02-13T04:14:02.145Z,15.07
2018-02-13T04:16:30.596Z,14.57
2018-02-13T04:18:58.169Z,14.30
2018-02-13T04:21:25.708Z,14.43
2018-02-13T04:23:53.266Z,14.15
2018-02-13T04:26:20.820Z,15.57
2018-02-13T04:28:48.342Z,16.00
2018-02-13T04:31:17.296Z,14.70
2018-02-13T04:33:44.821Z,13.87
2018-02-13T04:36:13.132Z,16.08
2018-02-13T04:38:40.654Z,14.63
2018-02-13T04:41:08.204Z,14.63
2018-02-13T04:43:35.731Z,13.90
2018-02-13T04:46:03.270Z,16.10
2018-02-13T04:48:30.798Z,15.80
2018-02-13T04:50:59.148Z,14.20
2018-02-13T04:53:26.686Z,15.67
2018-02-13T04:55:54.212Z,15.43
2018-02-13T04:58:21.755Z,17.27
2018-02-13T05:00:49.276Z,16.03
2018-02-13T05:03:18.631Z,14.25
2018-02-13T05:05:46.933Z,18.07
2018-02-13T05:08:14.525Z,16.03
2018-02-13T05:10:42.838Z,17.40
2018-02-13T05:13:10.375Z,18.70
2018-02-13T05:15:37.904Z,18.75
2018-02-13T05:18:05.473Z,18.10
2018-02-13T05:20:33.005Z,18.27
2018-02-13T05:23:00.539Z,17.63
2018-02-13T05:25:28.069Z,19.25
2018-02-13T05:27:56.440Z,19.57
2018-02-13T05:30:23.960Z,20.03
2018-02-13T05:32:52.247Z,21.50
2018-02-13T05:35:19.811Z,20.70
2018-02-13T05:37:47.350Z,19.53
2018-02-13T05:40:14.901Z,21.30
2018-02-13T05:42:42.438Z,19.50
2018-02-13T05:45:10.028Z,19.97
2018-02-13T05:47:37.553Z,20.90
2018-02-13T05:50:05.114Z,21.10
2018-02-13T05:52:33.391Z,21.03
2018-02-13T05:55:00.915Z,21.77
2018-02-13T05:57:28.845Z,19.93
2018-02-13T05:59:56.364Z,21.73
2018-02-13T06:02:23.907Z,23.13
2018-02-13T06:04:51.429Z,23.10
2018-02-13T06:07:19.767Z,22.10
2018-02-13T06:09:47.385Z,21.00
2018-02-13T06:12:14.976Z,22.17
2018-02-13T06:14:43.269Z,21.80
2018-02-13T06:17:10.804Z,21.60
2018-02-13T06:19:38.349Z,21.63
2018-02-13T06:22:05.887Z,21.67
2018-02-13T06:24:34.195Z,23.97
2018-02-13T06:27:01.731Z,21.47
2018-02-13T06:29:29.276Z,23.27
2018-02-13T06:31:56.922Z,21.48
2018-02-13T06:34:24.469Z,23.17
2018-02-13T06:36:51.988Z,23.17
2018-02-13T06:39:19.525Z,24.90
2018-02-13T06:41:47.146Z,22.13
2018-02-13T06:44:14.704Z,22.20
2018-02-13T06:46:43.076Z,23.30
2018-02-13T06:49:10.672Z,25.00
2018-02-13T06:51:38.205Z,23.33
2018-02-13T06:54:05.748Z,22.77
2018-02-13T06:56:33.280Z,23.70
2018-02-13T06:59:00.834Z,23.00
2018-02-13T07:01:28.372Z,24.50
2018-02-13T07:03:55.887Z,23.10
2018-02-13T07:06:24.200Z,23.47
2018-02-13T07:08:51.719Z,24.17
2018-02-13T07:11:19.284Z,24.90
2018-02-13T07:13:46.805Z,22.48
2018-02-13T07:16:14.351Z,23.50
2018-02-13T07:18:41.904Z,21.90
2018-02-13T07:21:09.446Z,23.53
2018-02-13T07:23:36.972Z,24.60
2018-02-13T07:26:04.522Z,25.07
2018-02-13T07:28:32.067Z,25.35
2018-02-13T07:30:59.581Z,24.37
2018-02-13T07:33:27.903Z,23.07
2018-02-13T07:35:55.436Z,22.97
2018-02-13T07:38:22.991Z,22.67
2018-02-13T07:40:50.535Z,22.70
2018-02-13T07:43:18.087Z,23.57
2018-02-13T07:45:45.608Z,22.05
2018-02-13T07:48:13.149Z,23.90
2018-02-13T07:50:40.688Z,23.30
2018-02-13T07:53:08.223Z,22.83
2018-02-13T07:55:35.753Z,23.73
2018-02-13T07:58:03.302Z,23.20
2018-02-13T08:00:30.854Z,22.50
2018-02-13T08:02:58.371Z,21.77
2018-02-13T08:05:26.679Z,23.35
2018-02-13T08:07:54.200Z,22.47
2018-02-13T08:10:22.526Z,22.03
2018-02-13T08:12:50.813Z,22.65
2018-02-13T08:15:18.351Z,24.43
2018-02-13T08:17:46.639Z,22.53
2018-02-13T08:20:14.396Z,26.30
2018-02-13T08:22:41.948Z,23.17
2018-02-13T08:25:09.624Z,24.03
2018-02-13T08:27:38.091Z,24.53
2018-02-13T08:30:06.443Z,23.60
2018-02-13T08:32:33.980Z,24.10
2018-02-13T08:35:01.513Z,24.37
2018-02-13T08:37:29.158Z,23.73
2018-02-13T08:39:56.693Z,23.00
2018-02-13T08:42:24.233Z,23.63
2018-02-13T08:44:51.766Z,22.62
2018-02-13T08:47:19.313Z,22.80
2018-02-13T08:49:46.853Z,25.70
2018-02-13T08:52:14.398Z,22.87
2018-02-13T08:54:41.942Z,23.60
2018-02-13T08:57:09.830Z,23.70
2018-02-13T08:59:37.341Z,22.33
2018-02-13T09:02:04.902Z,22.77
2018-02-13T09:04:32.440Z,23.60
2018-02-13T09:06:59.966Z,24.90
2018-02-13T09:09:27.495Z,22.23
2018-02-13T09:11:55.771Z,24.13
2018-02-13T09:14:23.328Z,23.07
2018-02-13T09:16:51.065Z,23.90
2018-02-13T09:19:18.717Z,23.90
2018-02-13T09:21:46.270Z,25.07
2018-02-13T09:24:13.834Z,23.35
2018-02-13T09:26:41.364Z,23.03
2018-02-13T09:29:08.904Z,21.90
2018-02-13T09:31:36.421Z,25.03
2018-02-13T09:34:04.885Z,24.57
2018-02-13T09:36:33.164Z,22.97
2018-02-13T09:39:00.701Z,22.40
2018-02-13T09:41:28.236Z,24.00
2018-02-13T09:43:56.529Z,23.77
2018-02-13T09:46:24.077Z,23.43
2018-02-13T09:48:51.596Z,22.23
2018-02-13T09:51:19.242Z,23.73
2018-02-13T09:53:46.793Z,23.67
2018-02-13T09:56:16.553Z,23.67
2018-02-13T09:58:44.593Z,23.20
2018-02-13T10:01:12.254Z,23.73
2018-02-13T10:03:39.781Z,25.17
2018-02-13T10:06:09.538Z,25.37
2018-02-13T10:08:37.107Z,23.80
2018-02-13T10:11:04.669Z,22.00
2018-02-13T10:13:32.188Z,23.67
2018-02-13T10:15:59.733Z,24.30
2018-02-13T10:18:27.268Z,22.80
2018-02-13T10:20:54.784Z,23.70
2018-02-13T10:23:24.035Z,22.20
2018-02-13T10:25:51.572Z,21.87
2018-02-13T10:28:19.213Z,20.27
2018-02-13T10:30:46.736Z,21.60
2018-02-13T10:33:14.323Z,21.47
2018-02-13T10:35:41.935Z,21.77
2018-02-13T10:38:09.472Z,20.93
2018-02-13T10:40:36.996Z,20.40
2018-02-13T10:43:04.533Z,20.73
2018-02-13T10:45:32.072Z,19.52
2018-02-13T10:48:00.501Z,18.97
2018-02-13T10:50:28.075Z,19.70
2018-02-13T10:52:56.421Z,19.00
2018-02-13T10:55:24.220Z,20.40
2018-02-13T10:57:51.900Z,17.60
2018-02-13T11:00:19.507Z,15.03
2018-02-13T11:02:47.023Z,16.40
2018-02-13T11:05:14.608Z,17.60
2018-02-13T11:07:42.169Z,16.93
2018-02-13T11:10:09.717Z,16.60
2018-02-13T11:12:37.241Z,12.50
2018-02-13T11:15:04.808Z,15.00
2018-02-13T11:17:32.362Z,14.90
2018-02-13T11:19:59.960Z,17.67
2018-02-13T11:22:27.497Z,17.57
2018-02-13T11:24:55.075Z,15.83
2018-02-13T11:27:22.608Z,16.30
2018-02-13T11:29:50.159Z,14.48
2018-02-13T11:32:17.705Z,16.10
2018-02-13T11:34:45.263Z,19.20
2018-02-13T11:37:12.896Z,16.40
2018-02-13T11:39:40.465Z,18.80
2018-02-13T11:42:07.996Z,16.13
2018-02-13T11:44:35.545Z,15.75
2018-02-13T11:47:03.095Z,14.40
2018-02-13T11:49:30.729Z,14.38
2018-02-13T11:51:58.287Z,17.30
2018-02-13T11:54:25.908Z,14.95
2018-02-13T11:56:53.436Z,16.20
2018-02-13T11:59:21.010Z,15.00
2018-02-13T12:01:48.529Z,14.80
2018-02-13T12:04:16.125Z,14.33
2018-02-13T12:06:43.739Z,13.20
2018-02-13T12:09:11.279Z,13.47
2018-02-13T12:11:38.821Z,13.10
2018-02-13T12:14:06.365Z,12.47
2018-02-13T12:16:33.898Z,13.17
2018-02-13T12:19:01.463Z,12.87
2018-02-13T12:21:29.003Z,12.07
2018-02-13T12:23:56.541Z,15.10
2018-02-13T12:26:24.061Z,14.70
2018-02-13T12:28:51.620Z,15.20
2018-02-13T12:31:19.162Z,14.70
2018-02-13T12:33:46.845Z,14.60
2018-02-13T12:36:14.529Z,14.90
2018-02-13T12:38:42.850Z,13.07
2018-02-13T12:41:10.389Z,15.07
2018-02-13T12:43:37.907Z,15.13
2018-02-13T12:46:05.454Z,13.80
2018-02-13T12:48:32.986Z,14.07
2018-02-13T12:51:00.662Z,14.83
2018-02-13T12:53:28.171Z,13.80
2018-02-13T12:55:55.705Z,12.20
2018-02-13T12:58:23.262Z,12.35
2018-02-13T13:00:50.927Z,12.53
2018-02-13T13:03:18.440Z,11.10
2018-02-13T13:05:46.768Z,11.40
2018-02-13T13:08:14.560Z,12.20
2018-02-13T13:10:42.909Z,11.73
2018-02-13T13:13:10.471Z,12.03
2018-02-13T13:15:38.746Z,11.10
2018-02-13T13:18:06.278Z,12.10
2018-02-13T13:20:33.800Z,11.43
2018-02-13T13:23:01.354Z,11.23
2018-02-13T13:25:29.669Z,10.30
2018-02-13T13:27:57.235Z,10.40
2018-02-13T13:30:24.766Z,10.57
2018-02-13T13:32:52.300Z,12.27
2018-02-13T13:35:19.823Z,12.47
2018-02-13T13:37:48.388Z,12.07
2018-02-13T13:40:15.949Z,14.50
2018-02-13T13:42:43.595Z,15.93
2018-02-13T13:45:11.138Z,16.70
2018-02-13T13:47:38.708Z,15.60
2018-02-13T13:50:07.756Z,14.57
2018-02-13T13:52:35.285Z,13.50
2018-02-13T13:55:03.606Z,12.37
2018-02-13T13:57:32.666Z,13.50
2018-02-13T14:00:00.299Z,14.50
2018-02-13T14:02:29.345Z,10.95
2018-02-13T14:04:56.890Z,9.93
2018-02-13T14:07:24.411Z,9.53
2018-02-13T14:09:52.885Z,8.47
2018-02-13T14:12:20.476Z,10.17
2018-02-13T14:14:48.025Z,8.37
2018-02-13T14:17:17.130Z,9.10
2018-02-13T14:19:44.667Z,8.43
2018-02-13T14:22:12.226Z,9.60
2018-02-13T14:24:39.744Z,9.83
2018-02-13T14:27:07.265Z,10.63
2018-02-13T14:29:34.813Z,10.67
2018-02-13T14:32:02.368Z,10.50
2018-02-13T14:34:29.911Z,10.33
2018-02-13T14:36:57.447Z,10.43
2018-02-13T14:39:25.024Z,9.73
2018-02-13T14:41:52.653Z,9.97
2018-02-13T14:44:21.744Z,10.17
2018-02-13T14:46:49.502Z,8.10
2018-02-13T14:49:17.091Z,9.93
2018-02-13T14:51:44.644Z,10.57
2018-02-13T14:54:12.174Z,9.90
2018-02-13T14:56:40.539Z,9.03
2018-02-13T14:59:08.860Z,8.73
2018-02-13T15:01:36.417Z,8.57
2018-02-13T15:04:03.936Z,10.00
2018-02-13T15:06:31.534Z,11.17
2018-02-13T15:08:59.098Z,9.93
2018-02-13T15:11:26.611Z,10.13
2018-02-13T15:13:54.965Z,10.00
2018-02-13T15:16:22.523Z,10.90
2018-02-13T15:18:50.829Z,11.33
2018-02-13T15:21:18.363Z,12.68
2018-02-13T15:23:45.998Z,12.70
2018-02-13T15:26:13.527Z,12.85
2018-02-13T15:28:41.828Z,10.40
2018-02-13T15:31:09.373Z,12.93
2018-02-13T15:33:37.018Z,12.93
2018-02-13T15:36:04.672Z,12.02
2018-02-13T15:38:32.216Z,11.67
2018-02-13T15:40:59.753Z,11.90
2018-02-13T15:43:27.289Z,11.30
2018-02-13T15:45:54.820Z,12.10
2018-02-13T15:48:22.367Z,12.83
2018-02-13T15:50:49.957Z,12.60
2018-02-13T15:53:17.519Z,11.80
2018-02-13T15:55:45.842Z,11.52
2018-02-13T15:58:13.396Z,11.83
2018-02-13T16:00:40.991Z,13.03
2018-02-13T16:03:09.268Z,12.80
2018-02-13T16:05:36.798Z,11.63
2018-02-13T16:08:04.321Z,12.65
2018-02-13T16:10:31.874Z,12.20
2018-02-13T16:13:00.286Z,12.43
2018-02-13T16:15:27.933Z,13.73
2018-02-13T16:17:55.457Z,12.43
2018-02-13T16:20:23.001Z,14.80
2018-02-13T16:22:50.553Z,11.60
2018-02-13T16:25:18.124Z,13.50
2018-02-13T16:27:45.669Z,13.27
2018-02-13T16:30:13.229Z,13.88
2018-02-13T16:32:40.748Z,12.60
2018-02-13T16:35:08.344Z,13.75
2018-02-13T16:37:36.760Z,13.37
2018-02-13T16:40:04.283Z,12.93
2018-02-13T16:42:32.492Z,13.27
2018-02-13T16:45:00.005Z,12.90
2018-02-13T16:47:27.543Z,12.15
2018-02-13T16:49:55.073Z,14.40
2018-02-13T16:52:22.611Z,13.73
2018-02-13T16:54:50.127Z,13.70
2018-02-13T16:57:18.426Z,13.83
2018-02-13T16:59:45.986Z,14.68
2018-02-13T17:02:13.535Z,13.63
2018-02-13T17:04:41.090Z,14.15
2018-02-13T17:07:08.640Z,15.00
2018-02-13T17:09:37.741Z,16.20
2018-02-13T17:12:06.040Z,14.53
2018-02-13T17:14:33.567Z,14.50
2018-02-13T17:17:01.972Z,14.43
2018-02-13T17:19:29.491Z,13.80
2018-02-13T17:21:57.020Z,15.03
2018-02-13T17:24:24.596Z,15.30
2018-02-13T17:26:52.120Z,15.27
2018-02-13T17:29:19.647Z,15.73
2018-02-13T17:31:47.928Z,16.10
2018-02-13T17:34:15.470Z,15.40
2018-02-13T17:36:43.038Z,14.13
2018-02-13T17:39:11.401Z,16.10
2018-02-13T17:41:39.050Z,15.30
2018-02-13T17:44:06.610Z,17.83
2018-02-13T17:46:34.135Z,15.40
2018-02-13T17:49:01.718Z,14.43
2018-02-13T17:51:30.151Z,15.27
2018-02-13T17:53:57.691Z,14.13
2018-02-13T17:56:25.241Z,15.10
2018-02-13T17:58:52.780Z,14.43
2018-02-13T18:01:20.301Z,15.20
2018-02-13T18:03:47.833Z,14.55
2018-02-13T18:06:15.393Z,15.10
2018-02-13T18:08:42.959Z,15.15
2018-02-13T18:11:10.491Z,15.93
2018-02-13T18:13:38.013Z,15.13
2018-02-13T18:16:05.865Z,16.10
2018-02-13T18:18:34.875Z,15.38
2018-02-13T18:21:02.627Z,16.07
2018-02-13T18:23:30.154Z,15.20
2018-02-13T18:25:57.704Z,15.40
2018-02-13T18:28:25.215Z,14.63
2018-02-13T18:30:53.501Z,15.63
2018-02-13T18:33:21.048Z,16.10
2018-02-13T18:35:48.565Z,15.65
2018-02-13T18:38:16.970Z,16.07
2018-02-13T18:40:44.767Z,16.07
2018-02-13T18:43:12.381Z,15.10
2018-02-13T18:45:40.057Z,16.08
2018-02-13T18:48:07.614Z,17.30
2018-02-13T18:50:35.917Z,18.35
2018-02-13T18:55:31.080Z,21.00
2018-02-13T18:57:58.620Z,21.53
2018-02-13T19:00:26.920Z,20.63
2018-02-13T19:02:54.439Z,22.48
2018-02-13T19:05:21.987Z,20.73
2018-02-13T19:07:49.515Z,20.77
2018-02-13T19:10:17.059Z,21.20
2018-02-13T19:12:45.343Z,21.03
2018-02-13T19:15:12.904Z,21.35
2018-02-13T19:17:40.411Z,20.40
2018-02-13T19:20:07.967Z,21.00
2018-02-13T19:22:36.057Z,21.30
2018-02-13T19:25:03.577Z,23.00
2018-02-13T19:27:31.147Z,21.47
2018-02-13T19:29:58.701Z,23.07
2018-02-13T19:32:26.428Z,23.87
2018-02-13T19:34:53.972Z,23.10
2018-02-13T19:37:21.508Z,21.43
2018-02-13T19:39:49.043Z,22.20
2018-02-13T19:42:16.621Z,22.52
2018-02-13T19:44:44.251Z,22.17
2018-02-13T19:47:11.828Z,23.20
2018-02-13T19:49:39.360Z,23.87
2018-02-13T19:52:06.886Z,23.10
2018-02-13T19:54:34.461Z,22.87
2018-02-13T19:57:03.588Z,21.53
2018-02-13T19:59:31.124Z,22.80
2018-02-13T20:01:58.656Z,22.40
2018-02-13T20:04:27.081Z,26.42
2018-02-13T20:06:54.621Z,22.83
2018-02-13T20:09:22.417Z,22.20
2018-02-13T20:11:50.709Z,22.57
2018-02-13T20:14:18.374Z,25.03
2018-02-13T20:16:45.897Z,23.87
2018-02-13T20:19:13.524Z,22.48
2018-02-13T20:21:41.095Z,24.07
2018-02-13T20:24:08.695Z,22.20
2018-02-13T20:26:37.930Z,23.80
2018-02-13T20:29:05.475Z,23.07
2018-02-13T20:31:33.014Z,23.13
2018-02-13T20:34:00.554Z,21.50
2018-02-13T20:36:28.524Z,23.07
2018-02-13T20:38:56.078Z,21.73
2018-02-13T20:41:23.668Z,22.20
2018-02-13T20:43:51.323Z,22.20
2018-02-13T20:46:18.903Z,22.65
2018-02-13T20:48:46.424Z,24.67
2018-02-13T20:51:13.936Z,22.93
2018-02-13T20:53:42.262Z,24.03
2018-02-13T20:56:09.815Z,24.37
2018-02-13T20:58:38.297Z,22.90
2018-02-13T21:01:05.841Z,22.30
2018-02-13T21:03:33.403Z,22.90
2018-02-13T21:06:01.702Z,22.93
2018-02-13T21:08:29.253Z,21.00
2018-02-13T21:10:56.803Z,21.50
2018-02-13T21:13:24.369Z,22.73
2018-02-13T21:15:53.435Z,19.50
2018-02-13T21:18:21.009Z,20.83
2018-02-13T21:20:48.601Z,20.90
2018-02-13T21:23:16.253Z,21.40
2018-02-13T21:25:43.818Z,20.27
2018-02-13T21:28:11.377Z,20.77
2018-02-13T21:30:38.934Z,20.75
2018-02-13T21:33:06.514Z,21.77
2018-02-13T21:35:34.045Z,20.77
2018-02-13T21:38:02.333Z,20.43
2018-02-13T21:40:29.894Z,19.97
2018-02-13T21:42:57.429Z,21.50
2018-02-13T21:45:24.999Z,20.17
2018-02-13T21:47:52.532Z,20.00
2018-02-13T21:50:20.078Z,20.30
2018-02-13T21:52:47.604Z,20.07
2018-02-13T21:55:15.179Z,18.83
2018-02-13T21:57:42.721Z,19.73
2018-02-13T22:00:10.331Z,19.57
2018-02-13T22:02:37.858Z,19.97
2018-02-13T22:05:05.425Z,18.90
2018-02-13T22:07:32.951Z,19.17
2018-02-13T22:10:00.488Z,18.63
2018-02-13T22:12:28.787Z,19.67
2018-02-13T22:14:56.313Z,18.67
2018-02-13T22:17:24.467Z,18.23
2018-02-13T22:19:52.116Z,20.07
2018-02-13T22:22:19.659Z,18.67
2018-02-13T22:24:47.295Z,17.90
2018-02-13T22:27:15.616Z,17.80
2018-02-13T22:29:43.172Z,17.93
2018-02-13T22:32:10.703Z,18.67
2018-02-13T22:34:38.230Z,17.93
2018-02-13T22:37:05.784Z,18.23
2018-02-13T22:39:33.364Z,19.80
2018-02-13T22:42:01.699Z,16.90
2018-02-13T22:44:30.014Z,18.08
2018-02-13T22:46:57.585Z,17.50
2018-02-13T22:49:25.120Z,17.53
2018-02-13T22:51:52.660Z,19.10
2018-02-13T22:54:20.205Z,18.90
2018-02-13T22:56:47.783Z,18.33
2018-02-13T22:59:15.371Z,17.13
2018-02-13T23:01:42.968Z,18.47
2018-02-13T23:04:10.549Z,18.15
2018-02-13T23:06:38.845Z,17.90
2018-02-13T23:09:06.388Z,18.70
2018-02-13T23:11:33.917Z,19.20
2018-02-13T23:14:01.489Z,17.90
2018-02-13T23:16:29.083Z,17.07
2018-02-13T23:18:57.402Z,18.63
2018-02-13T23:21:25.741Z,16.60
2018-02-13T23:23:53.286Z,18.20
2018-02-13T23:26:20.835Z,17.40
2018-02-13T23:28:48.386Z,16.70
2018-02-13T23:31:15.903Z,17.90
2018-02-13T23:33:44.307Z,16.27
2018-02-13T23:36:11.859Z,17.63
2018-02-13T23:38:39.381Z,17.60
2018-02-13T23:41:06.936Z,17.93
2018-02-13T23:43:34.470Z,18.50
2018-02-13T23:46:02.015Z,18.40
2018-02-13T23:48:29.541Z,17.77
2018-02-13T23:50:57.080Z,17.60
2018-02-13T23:53:24.657Z,17.00
2018-02-13T23:55:52.217Z,19.13
2018-02-13T23:58:19.753Z,17.43
